Estación Meteorológica Peña el Pijo (Robertgarden) [ 12/09/19 16:52:16 CET ]

Fecha Hora Presion(HPa) Temp (°C) Humedad % Rocio (°C) Viento ( m/s) Direccion Lluvia 1Hora(mm) Lluvia 24H(mm) LLuvia Total(mm)
2019-Nov-24 01:01:44 1001.200 5.0 73 0.5       1.03 37.81
2019-Nov-24 02:01:45 1001.200 4.9 73 0.4       1.03 37.81
2019-Nov-24 03:04:45 1001.200 5.1 73 0.6       1.03 37.81
2019-Nov-24 04:01:44 1000.900 4.9 73 0.4         37.81
2019-Nov-24 05:01:55 1001.100 4.8 74 0.5         37.81
2019-Nov-24 06:01:47 1001.800 4.4 74 0.1         37.81
2019-Nov-24 07:01:52 1002.600 3.6 76 -0.2         37.81
2019-Nov-24 08:01:47 1003.000 3.6 77 -0.1         37.81
2019-Nov-24 09:01:43 1003.800 4.4 77 0.7         37.81
2019-Nov-24 10:01:43 1004.000 7.1 71 2.2         37.81
2019-Nov-24 11:01:48 1004.800 7.9 66 1.9         37.81
2019-Nov-24 12:01:49 1004.300 9.2 60 1.9         37.81
2019-Nov-24 13:01:44 1003.600 10.3 54 1.4         37.81
2019-Nov-24 14:01:44 1003.500 10.1 53 0.9 3.7 N     37.81
2019-Nov-24 15:01:47 1003.600 9.8 54 0.9 1.3 NNE     37.81
2019-Nov-24 16:01:57 1003.400 10.5 50 0.6         37.81
2019-Nov-24 17:01:58 1003.800 8.3 49 -1.8 0.6 NE     37.81
2019-Nov-24 18:01:52 1004.000 6.8 56 -1.4         37.81
2019-Nov-24 19:01:43 1004.600 6.2 62 -0.6         37.81
2019-Nov-24 20:02:00 1005.300 5.5 67 -0.1         37.81
2019-Nov-24 21:01:38 1004.900 6.1 70 1.1         37.81
2019-Nov-24 22:01:44 1005.900 6.2 72 1.5         37.81
2019-Nov-24 23:01:40 1006.000 6.9 75 2.8         37.81

Temperatura Máxima:10°    Temperatura Mínima:
Presión Máxima:1006.000 Hpa    Presión Mínima:1000.900 Hpa


Volver